Time;durP1;ratioP1;P1;durP2;ratioP2;P2;SDS_P1;SDS_P2;PMS_P1;PMS_P2;Temp;Humidity;BMP_temperature;BMP_pressure;BME280_temperature;BME280_humidity;BME280_pressure;Samples;Min_cycle;Max_cycle;Signal;HPM_P1;HPM_P2
2023/06/02 00:02:18;;;;;;;0.00;0.00;;;;;;;13.21;60.07;101224.13;6237573;22;20016;-74
2023/06/02 00:04:44;;;;;;;0.00;0.00;;;;;;;13.21;60.71;101221.41;6214815;22;20019;-72
2023/06/02 00:07:11;;;;;;;0.00;0.00;;;;;;;13.25;60.57;101217.03;6220493;22;20046;-72
2023/06/02 00:09:41;;;;;;;0.00;0.00;;;;;;;13.36;59.85;101213.31;6242833;22;20094;-73
2023/06/02 00:12:08;;;;;;;0.00;0.00;;;;;;;13.37;59.32;101217.69;6268275;22;20030;-73
2023/06/02 00:14:34;;;;;;;0.00;0.00;;;;;;;13.26;59.37;101213.19;6244619;22;20007;-73
2023/06/02 00:17:00;;;;;;;0.00;0.00;;;;;;;13.20;59.37;101222.47;6244479;22;20083;-72
2023/06/02 00:19:32;;;;;;;0.00;0.00;;;;;;;13.21;58.87;101218.66;6267808;22;20004;-72
2023/06/02 00:22:00;;;;;;;0.00;0.00;;;;;;;13.17;59.12;101220.25;6242609;22;20061;-71
2023/06/02 00:24:25;;;;;;;0.00;0.00;;;;;;;13.14;59.02;101220.78;6262628;22;20061;-71
2023/06/02 00:26:51;;;;;;;0.00;0.00;;;;;;;13.00;59.19;101210.28;6239090;22;20003;-71
2023/06/02 00:29:16;;;;;;;0.00;0.00;;;;;;;12.95;59.43;101217.63;6261243;22;20562;-71
2023/06/02 00:31:42;;;;;;;0.00;0.00;;;;;;;12.83;59.51;101204.09;6271400;22;20015;-71
2023/06/02 00:34:07;;;;;;;0.00;0.00;;;;;;;12.81;59.31;101214.53;6236927;22;20007;-72
2023/06/02 00:36:32;;;;;;;0.00;0.00;;;;;;;12.79;59.75;101197.47;6239439;22;20010;-71
2023/06/02 00:38:58;;;;;;;0.00;0.00;;;;;;;12.74;59.92;101210.06;6237971;22;20086;-71
2023/06/02 00:41:24;;;;;;;0.00;0.00;;;;;;;12.73;59.88;101215.81;6264523;22;20008;-70
2023/06/02 00:43:49;;;;;;;0.00;0.00;;;;;;;12.78;59.79;101212.31;6267684;22;20105;-70
2023/06/02 00:46:15;;;;;;;0.00;0.00;;;;;;;12.78;59.57;101212.31;6262851;22;20014;-69
2023/06/02 00:48:40;;;;;;;0.00;0.00;;;;;;;12.79;59.53;101216.69;6187614;22;20029;-70
2023/06/02 00:51:06;;;;;;;0.00;0.00;;;;;;;12.83;59.50;101209.59;6113117;23;20372;-71
2023/06/02 00:53:31;;;;;;;0.00;0.00;;;;;;;12.82;59.15;101206.03;6139427;23;20041;-71
2023/06/02 00:55:58;;;;;;;0.00;0.00;;;;;;;12.86;59.23;101212.63;6143295;23;20017;-71
2023/06/02 00:58:25;;;;;;;0.00;0.00;;;;;;;12.78;58.88;101212.31;6109409;23;20017;-72
2023/06/02 01:00:51;;;;;;;0.00;0.00;;;;;;;12.69;59.35;101210.03;6139781;23;20009;-72
2023/06/02 01:03:21;;;;;;;0.00;0.00;;;;;;;12.75;59.29;101202.66;6138037;23;20745;-73
2023/06/02 01:05:48;;;;;;;0.00;0.00;;;;;;;12.66;58.88;101209.72;6115228;23;20009;-71
2023/06/02 01:08:15;;;;;;;0.00;0.00;;;;;;;12.53;59.20;101211.81;6109703;23;20028;-72
2023/06/02 01:10:41;;;;;;;0.00;0.00;;;;;;;12.49;59.51;101209.84;6139253;23;20009;-72
2023/06/02 01:13:07;;;;;;;0.00;0.00;;;;;;;12.53;59.56;101210.97;6138095;23;20454;-71
2023/06/02 01:15:32;;;;;;;0.00;0.00;;;;;;;12.60;59.59;101208.84;6142038;23;20027;-71
2023/06/02 01:18:01;;;;;;;0.00;0.00;;;;;;;12.64;59.27;101201.72;6116750;23;20355;-72
2023/06/02 01:20:28;;;;;;;0.00;0.00;;;;;;;12.66;59.34;101194.09;6115414;23;20406;-72
2023/06/02 01:23:08;;;;;;;0.00;0.00;;;;;;;12.71;59.37;101202.34;6140976;23;20675;-70
2023/06/02 01:25:36;;;;;;;0.00;0.00;;;;;;;12.91;59.67;101195.38;6145107;23;20029;-74
2023/06/02 01:28:04;;;;;;;0.00;0.00;;;;;;;13.01;58.95;101198.22;6137573;23;20037;-74
2023/06/02 01:30:31;;;;;;;0.00;0.00;;;;;;;13.05;58.68;101199.34;6115994;23;20427;-71
2023/06/02 01:33:15;;;;;;;0.00;0.00;;;;;;;12.96;58.58;101192.66;6114164;23;20667;-72
2023/06/02 01:35:44;;;;;;;0.00;0.00;;;;;;;12.87;58.84;101194.25;6140226;23;20355;-70
2023/06/02 01:38:10;;;;;;;0.00;0.00;;;;;;;12.92;58.95;101197.03;6135923;23;20085;-71
2023/06/02 01:40:37;;;;;;;0.00;0.00;;;;;;;13.00;58.88;101193.78;6144488;23;20009;-71
2023/06/02 01:43:04;;;;;;;0.00;0.00;;;;;;;12.97;58.38;101194.31;6112568;23;20033;-71
2023/06/02 01:45:32;;;;;;;0.00;0.00;;;;;;;12.94;58.32;101197.59;6140713;23;20036;-72
2023/06/02 01:48:01;;;;;;;0.00;0.00;;;;;;;12.94;58.30;101194.84;6139988;23;20432;-71
2023/06/02 01:50:27;;;;;;;0.00;0.00;;;;;;;12.88;58.70;101195.91;6141311;22;20017;-72
2023/06/02 01:52:52;;;;;;;0.00;0.00;;;;;;;12.94;58.83;101200.34;6142533;23;20488;-72
2023/06/02 01:55:18;;;;;;;0.00;0.00;;;;;;;12.96;58.59;101195.41;6087522;23;20017;-72
2023/06/02 01:57:43;;;;;;;0.00;0.00;;;;;;;12.93;58.64;101198.69;6113689;23;20118;-71
2023/06/02 02:00:10;;;;;;;0.00;0.00;;;;;;;12.78;58.86;101196.66;6109570;23;20021;-72
2023/06/02 02:02:35;;;;;;;0.00;0.00;;;;;;;12.69;58.89;101193.56;6109763;23;20006;-71
2023/06/02 02:05:02;;;;;;;0.00;0.00;;;;;;;12.58;58.86;101191.81;6114394;23;20009;-71
2023/06/02 02:07:28;;;;;;;0.00;0.00;;;;;;;12.59;59.33;101198.97;6114113;23;20031;-71
2023/06/02 02:09:55;;;;;;;0.00;0.00;;;;;;;12.57;59.71;101192.88;6114410;23;20017;-72
2023/06/02 02:12:21;;;;;;;0.00;0.00;;;;;;;12.54;59.57;101190.66;6112900;23;20074;-71
2023/06/02 02:14:50;;;;;;;0.00;0.00;;;;;;;12.49;60.02;101188.72;6139888;22;20067;-72
2023/06/02 02:17:16;;;;;;;0.00;0.00;;;;;;;12.50;59.97;101190.38;6091725;23;20008;-73
2023/06/02 02:19:42;;;;;;;0.00;0.00;;;;;;;12.50;59.96;101189.53;6141837;22;20088;-74
2023/06/02 02:22:07;;;;;;;0.00;0.00;;;;;;;12.48;60.04;101191.72;6246102;22;20080;-72
2023/06/02 02:24:33;;;;;;;0.00;0.00;;;;;;;12.53;60.62;101192.59;6094507;23;20096;-74
2023/06/02 02:26:58;;;;;;;0.00;0.00;;;;;;;12.57;60.43;101180.03;6143452;23;20010;-75
2023/06/02 02:29:24;;;;;;;0.00;0.00;;;;;;;12.64;60.32;101185.28;6115434;23;20101;-74
2023/06/02 02:31:49;;;;;;;0.00;0.00;;;;;;;12.66;59.95;101194.09;6143320;23;20318;-74
2023/06/02 02:34:15;;;;;;;0.00;0.00;;;;;;;12.64;59.93;101184.47;6115670;23;20006;-73
2023/06/02 02:36:40;;;;;;;0.00;0.00;;;;;;;12.54;60.20;101190.66;6248246;22;20424;-73
2023/06/02 02:39:06;;;;;;;0.00;0.00;;;;;;;12.43;60.37;101188.94;6142599;23;20021;-74
2023/06/02 02:41:32;;;;;;;0.00;0.00;;;;;;;12.45;60.67;101184.00;6141269;23;20016;-72
2023/06/02 02:43:57;;;;;;;0.00;0.00;;;;;;;12.45;60.88;101192.25;6247429;22;20005;-72
2023/06/02 02:46:22;;;;;;;0.00;0.00;;;;;;;12.49;60.67;101187.91;6139865;23;20096;-73
2023/06/02 02:48:48;;;;;;;0.00;0.00;;;;;;;12.48;60.61;101195.28;6247096;22;20045;-73
2023/06/02 02:51:13;;;;;;;0.00;0.00;;;;;;;12.43;60.67;101183.47;6140925;23;20092;-74
2023/06/02 02:53:39;;;;;;;0.00;0.00;;;;;;;12.43;60.18;101189.75;6096453;23;20039;-72
2023/06/02 02:56:04;;;;;;;0.00;0.00;;;;;;;12.37;60.58;101185.31;6094166;23;20014;-74
2023/06/02 02:58:31;;;;;;;0.00;0.00;;;;;;;12.45;60.45;101175.78;6142813;23;20462;-74
2023/06/02 03:00:57;;;;;;;0.00;0.00;;;;;;;12.51;59.91;101182.97;6118313;23;20010;-74
2023/06/02 03:03:22;;;;;;;0.00;0.00;;;;;;;12.42;59.69;101187.28;6115194;23;20020;-73
2023/06/02 03:05:49;;;;;;;0.00;0.00;;;;;;;12.29;60.26;101189.34;6118971;23;20001;-75
2023/06/02 03:08:17;;;;;;;0.00;0.00;;;;;;;12.29;60.69;101194.81;6116478;23;20005;-74
2023/06/02 03:10:45;;;;;;;0.00;0.00;;;;;;;12.37;60.32;101194.38;6144254;22;20063;-73
2023/06/02 03:13:10;;;;;;;0.00;0.00;;;;;;;12.37;59.86;101190.81;6145519;23;20089;-73
2023/06/02 03:15:36;;;;;;;0.00;0.00;;;;;;;12.23;60.22;101190.38;6139580;23;20067;-75
2023/06/02 03:18:03;;;;;;;0.00;0.00;;;;;;;12.11;60.59;101195.19;6146171;23;20009;-73
2023/06/02 03:20:29;;;;;;;0.00;0.00;;;;;;;12.12;61.09;101194.09;6139789;23;20466;-68
2023/06/02 03:22:55;;;;;;;0.00;0.00;;;;;;;12.07;60.99;101192.13;6142979;23;20010;-69
2023/06/02 03:25:21;;;;;;;0.00;0.00;;;;;;;12.03;60.66;101189.09;6115661;22;20014;-69
2023/06/02 03:27:51;;;;;;;0.00;0.00;;;;;;;11.98;60.70;101189.00;6110390;23;20009;-70
2023/06/02 03:30:16;;;;;;;0.00;0.00;;;;;;;11.94;60.97;101195.28;6141381;22;20005;-70
2023/06/02 03:32:42;;;;;;;0.00;0.00;;;;;;;11.91;60.90;101204.78;6111897;23;20017;-69
2023/06/02 03:35:08;;;;;;;0.00;0.00;;;;;;;11.91;61.27;101193.00;6117828;23;20044;-69
2023/06/02 03:37:33;;;;;;;0.00;0.00;;;;;;;11.89;61.35;101185.03;6088995;23;20377;-70
2023/06/02 03:39:59;;;;;;;0.00;0.00;;;;;;;11.90;61.57;101181.22;6067849;23;20037;-69
2023/06/02 03:42:24;;;;;;;0.00;0.00;;;;;;;11.93;61.68;101194.44;6145815;23;20010;-73
2023/06/02 03:44:50;;;;;;;0.00;0.00;;;;;;;11.91;61.73;101193.81;6139890;23;20436;-74
2023/06/02 03:47:15;;;;;;;0.00;0.00;;;;;;;11.86;61.60;101185.56;6146645;23;20012;-73
2023/06/02 03:49:41;;;;;;;0.00;0.00;;;;;;;11.90;61.73;101181.22;6096598;23;20022;-73
2023/06/02 03:52:06;;;;;;;0.10;0.10;;;;;;;12.03;61.26;101186.34;6089793;23;20013;-69
2023/06/02 03:54:32;;;;;;;0.00;0.00;;;;;;;12.09;60.93;101189.97;6084218;23;20072;-69
2023/06/02 03:56:57;;;;;;;0.00;0.00;;;;;;;12.01;60.66;101185.75;6086033;23;20496;-69
2023/06/02 03:59:23;;;;;;;0.00;0.00;;;;;;;12.13;60.73;101187.53;6088759;23;20009;-70
2023/06/02 04:01:49;;;;;;;0.00;0.00;;;;;;;12.26;60.39;101189.84;6082821;23;20641;-69
2023/06/02 04:04:15;;;;;;;0.00;0.00;;;;;;;12.31;60.31;101181.69;6088191;23;20058;-70
2023/06/02 04:06:41;;;;;;;0.00;0.00;;;;;;;12.33;59.80;101187.75;6108542;23;20010;-69
2023/06/02 04:09:11;;;;;;;0.00;0.00;;;;;;;12.35;59.95;101187.47;6089373;23;20013;-70
2023/06/02 04:11:37;;;;;;;0.00;0.00;;;;;;;12.37;59.30;101186.13;6109899;23;20005;-70
2023/06/02 04:14:03;;;;;;;0.00;0.00;;;;;;;12.45;59.45;101197.72;6112816;23;20025;-70
2023/06/02 04:16:28;;;;;;;0.00;0.00;;;;;;;12.49;59.42;101188.72;6114301;23;20010;-69
2023/06/02 04:18:53;;;;;;;0.00;0.00;;;;;;;12.48;59.40;101194.47;6110762;23;20408;-70
2023/06/02 04:21:19;;;;;;;0.00;0.00;;;;;;;12.52;59.19;101188.19;6088684;23;20093;-69
2023/06/02 04:23:44;;;;;;;0.00;0.00;;;;;;;12.56;58.94;101188.50;6083655;23;20020;-70
2023/06/02 04:26:10;;;;;;;0.00;0.00;;;;;;;12.60;58.88;101178.69;6113097;23;20309;-70
2023/06/02 04:28:35;;;;;;;0.00;0.00;;;;;;;12.68;58.42;101185.59;6064061;23;20068;-71
2023/06/02 04:31:02;;;;;;;0.00;0.00;;;;;;;12.69;58.11;101199.06;6036547;23;20014;-71
2023/06/02 04:33:28;;;;;;;0.00;0.00;;;;;;;12.59;58.04;101182.50;6116107;23;20068;-69
2023/06/02 04:35:53;;;;;;;0.00;0.00;;;;;;;12.61;58.19;101184.97;6061477;23;20010;-69
2023/06/02 04:38:19;;;;;;;0.00;0.00;;;;;;;12.66;58.27;101191.34;6063313;23;20017;-69
2023/06/02 04:40:44;;;;;;;0.00;0.00;;;;;;;12.80;57.97;101193.66;6117309;22;20026;-69
2023/06/02 04:43:10;;;;;;;0.00;0.00;;;;;;;12.68;57.66;101180.91;6109191;23;20482;-69
2023/06/02 04:45:35;;;;;;;0.00;0.00;;;;;;;12.69;57.63;101190.81;6112906;23;20009;-69
2023/06/02 04:48:01;;;;;;;0.00;0.00;;;;;;;12.64;57.75;101201.72;6083767;23;20017;-70
2023/06/02 04:50:29;;;;;;;0.00;0.00;;;;;;;12.55;58.17;101203.31;6116393;23;20025;-70
2023/06/02 04:52:55;;;;;;;0.00;0.00;;;;;;;12.49;57.84;101198.88;6061981;23;20009;-70
2023/06/02 04:55:20;;;;;;;0.00;0.00;;;;;;;12.51;58.03;101207.66;6065007;23;20059;-69
2023/06/02 04:57:48;;;;;;;0.00;0.00;;;;;;;12.47;58.17;101206.50;6089129;23;20081;-70
2023/06/02 05:00:14;;;;;;;0.00;0.00;;;;;;;12.37;57.76;101199.84;6082697;23;20093;-70
2023/06/02 05:02:39;;;;;;;0.00;0.00;;;;;;;12.36;58.40;101205.59;6066696;23;20445;-70
2023/06/02 05:05:06;;;;;;;0.00;0.00;;;;;;;12.27;58.68;101210.72;6084745;23;20026;-68
2023/06/02 05:07:32;;;;;;;0.00;0.00;;;;;;;12.24;58.76;101197.53;6063890;23;20053;-70
2023/06/02 05:09:57;;;;;;;0.00;0.00;;;;;;;12.36;58.77;101206.41;6062438;23;20120;-69
2023/06/02 05:12:25;;;;;;;0.00;0.00;;;;;;;12.38;58.35;101204.25;6069706;23;20191;-73
2023/06/02 05:14:50;;;;;;;0.00;0.00;;;;;;;12.41;58.67;101208.38;6088172;23;20040;-73
2023/06/02 05:17:23;;;;;;;0.00;0.00;;;;;;;12.45;58.37;101204.03;6083176;23;20033;-74
2023/06/02 05:19:49;;;;;;;0.00;0.00;;;;;;;12.46;58.29;101199.41;6114368;23;20417;-72
2023/06/02 05:22:14;;;;;;;0.00;0.00;;;;;;;12.48;58.36;101192.53;6109231;23;20577;-71
2023/06/02 05:24:40;;;;;;;0.00;0.00;;;;;;;12.53;58.28;101200.00;6087824;23;20013;-72
2023/06/02 05:27:07;;;;;;;0.00;0.00;;;;;;;12.53;58.41;101200.81;6088555;23;20026;-72
2023/06/02 05:29:32;;;;;;;0.00;0.00;;;;;;;12.53;58.25;101195.34;6083281;23;20014;-72
2023/06/02 05:31:57;;;;;;;0.00;0.00;;;;;;;12.69;58.24;101200.97;6038076;23;20503;-71
2023/06/02 05:34:23;;;;;;;0.00;0.00;;;;;;;12.77;58.24;101196.91;6108256;23;20034;-70
2023/06/02 05:36:48;;;;;;;0.00;0.00;;;;;;;12.80;57.42;101188.16;6115548;23;20156;-75
2023/06/02 05:39:14;;;;;;;0.00;0.00;;;;;;;12.83;56.82;101187.63;6064668;22;20002;-74
2023/06/02 05:41:39;;;;;;;0.00;0.00;;;;;;;12.84;56.80;101181.06;6097155;23;20084;-71
2023/06/02 05:44:05;;;;;;;0.00;0.00;;;;;;;12.88;56.34;101190.44;6090002;23;20314;-69
2023/06/02 05:46:31;;;;;;;0.00;0.00;;;;;;;12.86;56.40;101176.94;6059379;23;20017;-70
2023/06/02 05:48:56;;;;;;;0.00;0.00;;;;;;;13.01;56.14;101189.97;6113488;23;20082;-69
2023/06/02 05:51:21;;;;;;;0.00;0.00;;;;;;;13.10;55.90;101182.88;6082657;23;20016;-70
2023/06/02 05:53:49;;;;;;;0.00;0.00;;;;;;;13.19;55.83;101182.41;6086835;23;20044;-70
2023/06/02 05:56:16;;;;;;;0.00;0.00;;;;;;;13.28;55.39;101175.31;6087163;23;20055;-71
2023/06/02 05:58:41;;;;;;;0.00;0.00;;;;;;;13.35;55.35;101183.34;6089489;23;20340;-70
2023/06/02 06:01:08;;;;;;;0.00;0.00;;;;;;;13.38;55.33;101183.63;6088274;23;20006;-68
2023/06/02 06:03:34;;;;;;;0.00;0.00;;;;;;;13.39;55.22;101178.94;6084740;23;20427;-69
2023/06/02 06:06:01;;;;;;;0.00;0.00;;;;;;;13.38;55.35;101178.13;6089176;23;20396;-71
2023/06/02 06:08:26;;;;;;;0.00;0.00;;;;;;;13.41;55.41;101185.84;6108856;23;20016;-74
2023/06/02 06:10:52;;;;;;;0.00;0.00;;;;;;;13.49;55.46;101183.69;6065101;23;20093;-72
2023/06/02 06:13:17;;;;;;;0.00;0.00;;;;;;;13.57;55.08;101181.25;6084799;23;20068;-71
2023/06/02 06:15:43;;;;;;;0.00;0.00;;;;;;;13.66;54.66;101178.81;6088022;23;20002;-72
2023/06/02 06:18:08;;;;;;;0.00;0.00;;;;;;;13.68;54.68;101189.53;6110906;23;20014;-73
2023/06/02 06:20:34;;;;;;;0.00;0.00;;;;;;;13.72;54.51;101182.41;6085234;23;20428;-72
2023/06/02 06:22:59;;;;;;;0.00;0.00;;;;;;;13.86;53.98;101193.75;6037485;23;20041;-73
2023/06/02 06:25:25;;;;;;;0.00;0.00;;;;;;;13.99;53.64;101186.91;6089075;23;20014;-72
2023/06/02 06:27:50;;;;;;;0.00;0.00;;;;;;;14.04;53.36;101185.00;6060969;23;20429;-68
2023/06/02 06:30:16;;;;;;;0.00;0.00;;;;;;;14.09;53.42;101189.69;6113707;23;20363;-68
2023/06/02 06:32:41;;;;;;;0.00;0.00;;;;;;;14.18;52.97;101189.97;6106694;23;20017;-69
2023/06/02 06:35:07;;;;;;;0.00;0.00;;;;;;;14.22;53.00;101188.34;6115303;23;20063;-69
2023/06/02 06:37:32;;;;;;;0.00;0.00;;;;;;;14.31;52.64;101190.28;6086669;23;20085;-69
2023/06/02 06:39:58;;;;;;;0.00;0.00;;;;;;;14.37;51.91;101193.88;6068566;22;20425;-70
2023/06/02 06:42:23;;;;;;;0.00;0.00;;;;;;;14.46;51.49;101197.72;6110040;23;20316;-70
2023/06/02 06:44:50;;;;;;;0.00;0.00;;;;;;;14.62;50.90;101195.03;6109164;23;20701;-68
2023/06/02 06:47:15;;;;;;;0.00;0.00;;;;;;;14.73;50.83;101199.44;6115285;23;20017;-69
2023/06/02 06:49:41;;;;;;;0.00;0.00;;;;;;;14.78;50.68;101199.44;6085482;23;20026;-69
2023/06/02 06:52:06;;;;;;;0.00;0.00;;;;;;;14.96;50.38;101205.50;6088881;23;20005;-70
2023/06/02 06:54:32;;;;;;;0.00;0.00;;;;;;;14.98;49.67;101197.78;6085046;23;20098;-68
2023/06/02 06:57:00;;;;;;;0.00;0.00;;;;;;;15.09;49.32;101201.34;6088689;23;20002;-69
2023/06/02 06:59:26;;;;;;;0.00;0.00;;;;;;;15.25;49.33;101191.94;6088031;23;20025;-72
2023/06/02 07:01:51;;;;;;;0.00;0.00;;;;;;;15.44;49.00;101192.19;6085480;23;20398;-73
2023/06/02 07:04:17;;;;;;;0.00;0.00;;;;;;;15.57;48.95;101203.72;6114608;23;20014;-73
2023/06/02 07:06:43;;;;;;;0.00;0.00;;;;;;;15.57;48.43;101206.50;6108089;23;20784;-73
2023/06/02 07:09:10;;;;;;;0.00;0.00;;;;;;;15.71;48.46;101199.25;6113988;23;20550;-72
2023/06/02 07:11:36;;;;;;;0.00;0.00;;;;;;;15.85;47.93;101213.28;6109362;23;20524;-70
2023/06/02 07:14:01;;;;;;;0.00;0.00;;;;;;;15.91;47.55;101217.69;6115280;23;20087;-72
2023/06/02 07:16:26;;;;;;;0.00;0.00;;;;;;;15.99;47.28;101205.22;6114667;23;20064;-71
2023/06/02 07:18:52;;;;;;;0.00;0.00;;;;;;;16.09;47.14;101221.75;6108415;23;20093;-72
2023/06/02 07:21:17;;;;;;;0.00;0.00;;;;;;;16.12;47.24;101210.13;6089334;23;20020;-72
2023/06/02 07:23:43;;;;;;;0.00;0.00;;;;;;;16.15;46.92;101212.31;6085584;23;20174;-70
2023/06/02 07:26:08;;;;;;;0.00;0.00;;;;;;;16.32;46.60;101213.88;6114046;23;20014;-71
2023/06/02 07:28:33;;;;;;;0.00;0.00;;;;;;;16.34;46.47;101223.53;6115675;23;20014;-71
2023/06/02 07:30:59;;;;;;;0.00;0.00;;;;;;;16.42;46.15;101213.00;6083976;23;20186;-71
2023/06/02 07:33:24;;;;;;;0.00;0.00;;;;;;;16.51;46.08;101216.78;6114228;23;20451;-72
2023/06/02 07:35:50;;;;;;;0.00;0.00;;;;;;;16.51;45.94;101222.31;6110295;23;20010;-71
2023/06/02 07:38:15;;;;;;;0.00;0.00;;;;;;;16.61;46.02;101216.72;6081585;23;20006;-70
2023/06/02 07:40:41;;;;;;;0.00;0.00;;;;;;;16.63;45.43;101216.44;6123222;22;20025;-71
2023/06/02 07:43:06;;;;;;;0.00;0.00;;;;;;;16.68;45.38;101216.41;6240283;22;20062;-74
2023/06/02 07:45:32;;;;;;;0.00;0.00;;;;;;;16.89;45.58;101215.16;6116294;23;20035;-71
2023/06/02 07:47:57;;;;;;;0.00;0.00;;;;;;;17.19;45.36;101210.44;6138278;23;20006;-71
2023/06/02 07:50:23;;;;;;;0.00;0.00;;;;;;;17.43;44.62;101209.66;6246363;22;20689;-72
2023/06/02 07:52:48;;;;;;;0.00;0.00;;;;;;;17.56;44.26;101214.47;6137181;23;20010;-71
2023/06/02 07:55:14;;;;;;;0.00;0.00;;;;;;;17.76;44.05;101223.66;6244960;22;20390;-70
2023/06/02 07:57:39;;;;;;;0.00;0.00;;;;;;;17.94;43.47;101214.59;6143358;23;20032;-71
2023/06/02 08:00:15;;;;;;;0.00;0.00;;;;;;;18.02;43.52;101210.34;6139242;23;20005;-70
2023/06/02 08:02:48;;;;;;;0.00;0.00;;;;;;;18.23;42.93;101205.34;6243661;22;20001;-75
2023/06/02 08:05:17;;;;;;;0.00;0.00;;;;;;;18.31;42.56;101207.47;6138693;23;20001;-74
2023/06/02 08:07:44;;;;;;;0.00;0.00;;;;;;;18.33;42.62;101203.56;6144047;23;19997;-73
2023/06/02 08:10:10;;;;;;;0.00;0.00;;;;;;;18.36;42.30;101205.75;6134885;23;20444;-71
2023/06/02 08:12:36;;;;;;;0.00;0.00;;;;;;;18.56;42.34;101210.97;6141506;23;20059;-72
2023/06/02 08:15:02;;;;;;;0.00;0.00;;;;;;;18.73;42.08;101204.03;6215298;23;20021;-72
2023/06/02 08:17:30;;;;;;;0.00;0.00;;;;;;;18.76;41.78;101197.91;6113441;23;20097;-72
2023/06/02 08:19:57;;;;;;;0.00;0.00;;;;;;;18.90;41.46;101207.09;6242022;22;20009;-69
2023/06/02 08:22:25;;;;;;;0.00;0.00;;;;;;;18.87;40.96;101206.91;6111146;23;20018;-70
2023/06/02 08:24:52;;;;;;;0.00;0.00;;;;;;;18.72;40.71;101206.00;6218382;23;20016;-72
2023/06/02 08:27:18;;;;;;;0.00;0.00;;;;;;;18.60;40.97;101212.00;6136753;23;20029;-72
2023/06/02 08:29:44;;;;;;;0.00;0.00;;;;;;;18.59;41.16;101206.78;6115187;23;20017;-71
2023/06/02 08:32:09;;;;;;;0.00;0.00;;;;;;;18.75;41.08;101207.31;6240800;22;20017;-72
2023/06/02 08:34:41;;;;;;;0.00;0.00;;;;;;;18.82;41.03;101210.53;6111968;23;20023;-72
2023/06/02 08:37:15;;;;;;;0.00;0.00;;;;;;;18.96;40.69;101197.56;6238825;22;20025;-72
2023/06/02 08:39:40;;;;;;;0.00;0.00;;;;;;;19.29;40.42;101194.78;6111313;22;20028;-71
2023/06/02 08:42:08;;;;;;;0.00;0.00;;;;;;;19.66;40.04;101197.66;6242830;22;20017;-73
2023/06/02 08:44:35;;;;;;;0.00;0.00;;;;;;;19.94;39.25;101194.88;6138180;23;20090;-70
2023/06/02 08:47:02;;;;;;;0.00;0.00;;;;;;;20.12;38.64;101198.66;6117335;23;20024;-73
2023/06/02 08:49:29;;;;;;;0.00;0.00;;;;;;;20.27;38.60;101198.31;6136589;23;20040;-72
2023/06/02 08:52:00;;;;;;;0.00;0.00;;;;;;;20.40;38.58;101197.44;6138193;23;20083;-72
2023/06/02 08:54:27;;;;;;;0.00;0.00;;;;;;;20.75;38.18;101206.06;6089931;23;20048;-73
2023/06/02 08:56:57;;;;;;;0.00;0.00;;;;;;;20.69;37.36;101195.41;6137333;23;20005;-71
2023/06/02 08:59:26;;;;;;;0.00;0.00;;;;;;;20.70;37.62;101200.63;6142578;23;20104;-70
2023/06/02 09:01:52;;;;;;;0.00;0.00;;;;;;;20.84;37.79;101205.31;6112421;23;20064;-70
2023/06/02 09:04:18;;;;;;;0.00;0.00;;;;;;;20.82;37.21;101202.88;6143663;23;20083;-70
2023/06/02 09:06:49;;;;;;;0.00;0.00;;;;;;;20.88;37.20;101196.03;6087546;23;20116;-71
2023/06/02 09:09:14;;;;;;;0.00;0.00;;;;;;;21.19;37.27;101205.53;6144605;23;20010;-70
2023/06/02 09:11:56;;;;;;;0.00;0.00;;;;;;;21.74;36.89;101194.00;6137512;23;20016;-71
2023/06/02 09:14:22;;;;;;;0.00;0.00;;;;;;;21.90;35.93;101196.31;6144446;23;20010;-71
2023/06/02 09:16:47;;;;;;;0.00;0.00;;;;;;;21.69;35.96;101196.09;6110621;23;20474;-72
2023/06/02 09:19:13;;;;;;;0.00;0.00;;;;;;;21.53;36.28;101190.97;6143533;23;20009;-71
2023/06/02 09:21:38;;;;;;;0.00;0.00;;;;;;;21.06;36.75;101196.94;6241458;22;20067;-73
2023/06/02 09:24:04;;;;;;;0.00;0.00;;;;;;;20.59;37.32;101204.78;6235588;22;20021;-74
2023/06/02 09:26:30;;;;;;;0.00;0.00;;;;;;;20.53;37.51;101197.69;6108451;23;20388;-72
2023/06/02 09:29:07;;;;;;;0.00;0.00;;;;;;;20.46;37.54;101200.09;6139987;23;20017;-72
2023/06/02 09:31:53;;;;;;;0.00;0.00;;;;;;;20.28;37.17;101205.53;6141682;23;20187;-72
2023/06/02 09:34:23;;;;;;;0.00;0.00;;;;;;;19.97;37.61;101206.19;6140853;23;20626;-74
2023/06/02 09:36:51;;;;;;;0.00;0.00;;;;;;;19.64;38.30;101209.06;6238914;22;20013;-73
2023/06/02 09:39:35;;;;;;;0.00;0.00;;;;;;;19.40;38.99;101208.44;6116535;22;20009;-71
2023/06/02 09:42:02;;;;;;;0.00;0.00;;;;;;;19.26;39.09;101213.94;6135786;23;20048;-73
2023/06/02 09:44:27;;;;;;;0.00;0.00;;;;;;;19.08;39.64;101207.34;6115913;23;20010;-72
2023/06/02 09:46:53;;;;;;;0.00;0.00;;;;;;;19.21;39.50;101206.56;6109855;23;20320;-73
2023/06/02 09:49:19;;;;;;;0.00;0.00;;;;;;;19.71;39.26;101198.38;6141729;23;20097;-71
2023/06/02 09:51:44;;;;;;;0.00;0.00;;;;;;;19.90;38.29;101200.22;6116234;23;20009;-72
2023/06/02 09:54:10;;;;;;;0.00;0.00;;;;;;;19.88;38.63;101203.31;6136567;23;20005;-71
2023/06/02 09:56:37;;;;;;;0.00;0.00;;;;;;;19.97;38.56;101206.19;6244662;22;20031;-73
2023/06/02 09:59:07;;;;;;;0.00;0.00;;;;;;;20.07;38.65;101207.09;6110903;23;20002;-72
2023/06/02 10:01:33;;;;;;;0.00;0.00;;;;;;;20.46;38.57;101214.81;6140798;23;20081;-75
2023/06/02 10:04:00;;;;;;;0.00;0.00;;;;;;;20.68;37.67;101214.03;6104819;23;20692;-72
2023/06/02 10:07:08;;;;;;;0.00;0.00;;;;;;;20.44;37.54;101219.03;6139275;23;20056;-72
2023/06/02 10:10:03;;;;;;;0.00;0.00;;;;;;;20.08;38.29;101211.50;6113211;23;20009;-72
2023/06/02 10:12:51;;;;;;;0.00;0.00;;;;;;;19.93;38.66;101218.22;6111386;23;20008;-73
2023/06/02 10:15:41;;;;;;;0.00;0.00;;;;;;;20.09;38.58;101213.16;6111618;23;20015;-73
2023/06/02 10:18:28;;;;;;;0.00;0.00;;;;;;;20.61;38.59;101218.38;6113745;23;20005;-74
2023/06/02 10:21:15;;;;;;;0.00;0.00;;;;;;;21.31;37.65;101225.22;6137793;22;20782;-72
2023/06/02 10:24:09;;;;;;;0.00;0.00;;;;;;;22.04;36.52;101219.28;6117435;23;20016;-71
2023/06/02 10:27:02;;;;;;;0.00;0.00;;;;;;;22.58;35.48;101209.84;6117267;23;20078;-73
2023/06/02 10:29:29;;;;;;;0.00;0.00;;;;;;;22.97;34.84;101221.94;6136876;23;20021;-72
2023/06/02 10:31:55;;;;;;;0.00;0.00;;;;;;;23.16;34.23;101221.59;6144334;23;20041;-73
2023/06/02 10:34:51;;;;;;;0.00;0.00;;;;;;;23.25;34.54;101222.38;6242349;22;20478;-72
2023/06/02 10:37:17;;;;;;;0.00;0.00;;;;;;;23.30;34.23;101213.00;6113032;23;20008;-73
2023/06/02 10:39:43;;;;;;;0.00;0.00;;;;;;;23.30;34.68;101218.56;6140577;22;20010;-73
2023/06/02 10:42:10;;;;;;;0.00;0.00;;;;;;;23.32;33.90;101205.13;6142005;22;20024;-73
2023/06/02 10:44:36;;;;;;;0.00;0.00;;;;;;;23.52;34.71;101209.97;6138624;23;20025;-73
2023/06/02 10:47:17;;;;;;;0.00;0.00;;;;;;;24.13;34.57;101211.59;6114381;23;20063;-71
2023/06/02 10:49:52;;;;;;;0.00;0.00;;;;;;;25.06;33.72;101213.44;6137102;23;20009;-71
2023/06/02 10:52:18;;;;;;;0.00;0.00;;;;;;;25.82;31.44;101205.59;6142853;22;20084;-72
2023/06/02 10:54:44;;;;;;;0.00;0.00;;;;;;;26.57;29.96;101209.09;6133759;23;20051;-72
2023/06/02 10:57:11;;;;;;;0.00;0.00;;;;;;;27.68;29.15;101203.63;6111710;23;20014;-72
2023/06/02 10:59:37;;;;;;;0.00;0.00;;;;;;;28.97;26.58;101202.00;6111649;23;20017;-75
2023/06/02 11:02:03;;;;;;;0.00;0.00;;;;;;;29.95;25.70;101190.38;6137697;23;20014;-72
2023/06/02 11:04:31;;;;;;;0.00;0.00;;;;;;;31.04;24.06;101196.16;6139575;23;20036;-73
2023/06/02 11:07:25;;;;;;;0.00;0.00;;;;;;;32.48;23.83;101193.53;6136855;23;20009;-72
2023/06/02 11:09:51;;;;;;;;;;;;;;;33.85;21.63;101197.34;6138459;23;20006;-73
2023/06/02 11:12:16;;;;;;;0.00;0.00;;;;;;;35.08;20.67;101193.97;6136107;23;19908;-73
2023/06/02 11:15:01;;;;;;;0.00;0.00;;;;;;;36.41;19.48;101186.19;6141349;22;20013;-72
2023/06/02 11:17:35;;;;;;;0.00;0.00;;;;;;;37.34;18.82;101199.06;6138987;22;20005;-74
2023/06/02 11:20:07;;;;;;;0.00;0.00;;;;;;;37.89;17.47;101196.88;6111921;23;20006;-73
2023/06/02 11:22:33;;;;;;;0.00;0.00;;;;;;;38.51;17.54;101184.16;6138957;23;20005;-73
2023/06/02 11:24:59;;;;;;;0.00;0.00;;;;;;;39.04;16.56;101181.34;6244508;22;20017;-75
2023/06/02 11:27:36;;;;;;;0.00;0.00;;;;;;;39.80;16.10;101180.19;6109084;23;20010;-73